Time;durP1;ratioP1;P1;durP2;ratioP2;P2;SDS_P1;SDS_P2;PMS_P1;PMS_P2;Temp;Humidity;BMP_temperature;BMP_pressure;BME280_temperature;BME280_humidity;BME280_pressure;Samples;Min_cycle;Max_cycle;Signal;HPM_P1;HPM_P2
2022/06/02 06:29:43;;;;;;;4.72;2.30;;;13.10;99.90;;;;;;5023510;28;20051;-86
2022/06/02 06:32:18;;;;;;;4.63;2.25;;;13.40;99.90;;;;;;4996830;28;20140;-87
2022/06/02 06:34:45;;;;;;;4.40;2.50;;;13.50;99.90;;;;;;5000340;28;20124;-89
2022/06/02 06:37:22;;;;;;;2.10;1.90;;;13.40;99.90;;;;;;5016298;28;20072;-88
2022/06/02 06:40:05;;;;;;;3.85;1.63;;;13.40;99.90;;;;;;4992642;28;20048;-88
2022/06/02 06:42:31;;;;;;;2.45;2.10;;;13.70;99.90;;;;;;5000722;28;20396;-87
2022/06/02 06:45:20;;;;;;;2.40;2.00;;;13.70;99.90;;;;;;4998463;28;20136;-88
2022/06/02 06:48:17;;;;;;;4.63;2.33;;;13.70;99.90;;;;;;4993803;28;20041;-88
2022/06/02 06:51:22;;;;;;;5.30;2.20;;;14.00;99.90;;;;;;4995708;28;20132;-87
2022/06/02 06:54:33;;;;;;;6.00;2.20;;;13.90;99.90;;;;;;5010648;28;20049;-88
2022/06/02 06:57:08;;;;;;;9.23;2.58;;;14.20;99.90;;;;;;4939947;28;20077;-88
2022/06/02 07:00:03;;;;;;;5.72;2.03;;;14.30;99.90;;;;;;5015831;28;20053;-87
2022/06/02 07:02:45;;;;;;;3.15;2.10;;;14.20;99.90;;;;;;5016688;28;20049;-86
2022/06/02 07:05:20;;;;;;;2.65;1.90;;;14.00;99.90;;;;;;5005410;28;20382;-87
2022/06/02 07:08:29;;;;;;;3.10;1.65;;;14.10;99.90;;;;;;5000426;28;20485;-88
2022/06/02 07:14:22;;;;;;;4.57;2.85;;;14.90;99.90;;;;;;5032212;28;20049;-89
2022/06/02 07:16:56;;;;;;;3.40;1.80;;;14.70;99.90;;;;;;5036193;28;20048;-88
2022/06/02 07:19:38;;;;;;;3.08;2.20;;;15.00;99.90;;;;;;5004198;28;20045;-88
2022/06/02 07:22:16;;;;;;;3.63;2.00;;;14.90;99.90;;;;;;5018760;28;20045;-86
2022/06/02 07:25:03;;;;;;;4.63;1.70;;;14.80;99.90;;;;;;4986243;28;20592;-86
2022/06/02 07:27:45;;;;;;;2.22;1.40;;;14.40;99.90;;;;;;4981680;28;20178;-87
2022/06/02 07:30:59;;;;;;;5.80;1.80;;;14.00;99.90;;;;;;4984173;28;20033;-88
2022/06/02 07:33:37;;;;;;;4.00;2.10;;;14.20;99.90;;;;;;4996207;28;20056;-87
2022/06/02 07:36:28;;;;;;;3.38;1.70;;;14.20;99.90;;;;;;5008601;28;20033;-95
2022/06/02 07:39:15;;;;;;;2.58;1.80;;;14.40;99.90;;;;;;5011945;28;20049;-94
2022/06/02 07:42:15;;;;;;;2.25;1.75;;;14.70;99.90;;;;;;4999285;28;20049;-87
2022/06/02 07:45:06;;;;;;;3.30;2.20;;;14.60;99.90;;;;;;5001505;28;20049;-90
2022/06/02 07:47:56;;;;;;;2.95;1.80;;;14.70;99.90;;;;;;4994620;28;20053;-89
2022/06/02 07:50:34;;;;;;;2.17;1.40;;;14.40;99.90;;;;;;4988987;28;20073;-88
2022/06/02 07:53:13;;;;;;;3.05;1.77;;;14.40;99.90;;;;;;5002935;28;20088;-88
2022/06/02 07:55:39;;;;;;;2.72;1.77;;;14.40;99.90;;;;;;5000754;28;20088;-87
2022/06/02 07:58:21;;;;;;;2.20;1.52;;;14.40;99.90;;;;;;4990220;28;20049;-87
2022/06/02 08:01:04;;;;;;;5.72;1.85;;;14.80;99.90;;;;;;4984380;28;20079;-88
2022/06/02 08:04:03;;;;;;;3.42;1.80;;;14.90;99.90;;;;;;5010019;28;20136;-88
2022/06/02 08:06:38;;;;;;;4.00;1.65;;;15.20;99.90;;;;;;4986470;28;20137;-88
2022/06/02 08:09:36;;;;;;;3.40;1.80;;;15.40;99.90;;;;;;4979334;28;20108;-89
2022/06/02 08:12:05;;;;;;;3.00;1.40;;;15.40;99.90;;;;;;4984344;28;20050;-86
2022/06/02 08:15:04;;;;;;;3.05;1.60;;;15.60;99.90;;;;;;4979027;28;20557;-87
2022/06/02 08:18:14;;;;;;;2.65;1.50;;;15.30;99.90;;;;;;4967168;28;20165;-88
2022/06/02 08:21:15;;;;;;;7.15;2.17;;;15.10;99.90;;;;;;4980473;28;20053;-88
2022/06/02 08:23:57;;;;;;;2.22;1.50;;;14.90;99.90;;;;;;4977284;28;20054;-88
2022/06/02 08:26:39;;;;;;;2.58;1.20;;;15.30;99.90;;;;;;4991920;28;20579;-87
2022/06/02 08:29:13;;;;;;;2.50;1.45;;;15.30;99.90;;;;;;4999900;28;20382;-87
2022/06/02 08:32:06;;;;;;;2.25;1.40;;;15.40;99.90;;;;;;5015286;28;20045;-88
2022/06/02 08:34:41;;;;;;;3.97;1.45;;;14.90;99.90;;;;;;5007427;28;20136;-88
2022/06/02 08:37:11;;;;;;;3.50;1.52;;;15.00;99.90;;;;;;5010343;28;20049;-88
2022/06/02 08:40:00;;;;;;;4.07;1.45;;;15.00;99.90;;;;;;5002602;28;20099;-89
2022/06/02 08:43:14;;;;;;;2.67;1.70;;;15.20;99.90;;;;;;5012799;28;20052;-90
2022/06/02 08:46:26;;;;;;;3.08;1.60;;;15.40;99.90;;;;;;4978922;28;20516;-95
2022/06/02 08:49:12;;;;;;;2.90;1.50;;;15.40;99.90;;;;;;4994457;28;20049;-84
2022/06/02 08:51:54;;;;;;;4.03;1.50;;;15.40;99.90;;;;;;5010242;28;20107;-93
2022/06/02 08:54:38;;;;;;;2.28;1.70;;;15.40;99.90;;;;;;5025680;28;20052;-93
2022/06/02 08:57:33;;;;;;;3.13;1.67;;;15.50;99.90;;;;;;5026560;28;20052;-92
2022/06/02 09:00:20;;;;;;;2.28;1.52;;;15.70;99.90;;;;;;5023088;28;20613;-95
2022/06/02 09:02:58;;;;;;;2.25;1.60;;;15.50;99.90;;;;;;4996107;28;20061;-93
2022/06/02 09:05:33;;;;;;;4.13;1.70;;;15.70;99.90;;;;;;4993357;28;20053;-95
2022/06/02 09:08:17;;;;;;;2.00;1.60;;;16.20;99.90;;;;;;4994472;28;20132;-96
2022/06/02 09:11:20;;;;;;;4.30;1.75;;;16.10;99.90;;;;;;5000010;28;20038;-96
2022/06/02 09:13:55;;;;;;;2.40;1.48;;;16.80;99.90;;;;;;5011486;28;20045;-95
2022/06/02 09:16:22;;;;;;;3.70;1.60;;;17.30;99.90;;;;;;5008747;28;20077;-95
2022/06/02 09:19:25;;;;;;;3.88;1.50;;;16.80;99.90;;;;;;5007761;28;20049;-92
2022/06/02 09:22:09;;;;;;;2.78;1.75;;;16.70;99.90;;;;;;5016019;28;20109;-92
2022/06/02 09:24:43;;;;;;;2.58;1.50;;;17.10;99.90;;;;;;5017784;28;20105;-95
2022/06/02 09:27:48;;;;;;;1.63;1.40;;;17.40;99.90;;;;;;5017453;28;20050;-95
2022/06/02 09:30:25;;;;;;;2.10;1.70;;;18.00;99.90;;;;;;5014948;28;20057;-93
2022/06/02 09:33:34;;;;;;;3.40;1.25;;;18.10;99.90;;;;;;5011307;28;20045;-95
2022/06/02 09:36:31;;;;;;;5.25;1.45;;;17.40;99.90;;;;;;5009103;28;20507;-95
2022/06/02 09:39:20;;;;;;;3.00;1.40;;;16.90;99.90;;;;;;5011229;28;20073;-92
2022/06/02 09:42:04;;;;;;;2.55;1.45;;;17.70;99.90;;;;;;5016291;28;20041;-92
2022/06/02 09:44:58;;;;;;;4.50;1.55;;;17.90;99.90;;;;;;5007599;28;20050;-95
2022/06/02 09:47:42;;;;;;;1.83;1.30;;;17.00;99.90;;;;;;5006437;28;20056;-94
2022/06/02 09:50:31;;;;;;;3.20;1.80;;;17.30;99.90;;;;;;5007993;28;20069;-95
2022/06/02 09:53:15;;;;;;;2.97;1.48;;;17.30;99.90;;;;;;5016830;28;20042;-94
2022/06/02 09:56:12;;;;;;;2.67;1.60;;;17.90;99.90;;;;;;5009734;28;20050;-94
2022/06/02 09:58:45;;;;;;;3.30;1.30;;;17.90;99.90;;;;;;5010427;28;20045;-95
2022/06/02 10:02:00;;;;;;;2.10;1.40;;;17.30;99.90;;;;;;5032521;28;20150;-96
2022/06/02 10:04:38;;;;;;;4.43;1.48;;;17.60;99.90;;;;;;4990079;28;20049;-95
2022/06/02 10:07:11;;;;;;;3.90;1.60;;;17.90;99.90;;;;;;5012645;28;20049;-95
2022/06/02 10:09:36;;;;;;;1.45;1.20;;;18.80;99.90;;;;;;5011291;28;20041;-94
2022/06/02 10:15:38;;;;;;;1.45;1.35;;;17.60;99.90;;;;;;5031142;28;20061;-95
2022/06/02 10:18:17;;;;;;;2.20;1.35;;;17.90;99.90;;;;;;5022481;28;20045;-93
2022/06/02 10:20:56;;;;;;;5.15;1.52;;;17.70;99.90;;;;;;5022170;28;20041;-95
2022/06/02 10:24:00;;;;;;;3.55;1.40;;;17.10;99.90;;;;;;5022856;28;20080;-94
2022/06/02 10:26:49;;;;;;;3.15;1.58;;;16.90;99.90;;;;;;5019541;28;20073;-95
2022/06/02 10:29:43;;;;;;;3.45;1.65;;;16.80;99.90;;;;;;5020647;28;20065;-95
2022/06/02 10:32:47;;;;;;;2.17;1.40;;;17.20;99.90;;;;;;5026192;28;20047;-95
2022/06/02 10:35:51;;;;;;;3.15;1.70;;;16.90;99.90;;;;;;5015429;28;20046;-96
2022/06/02 10:38:42;;;;;;;1.52;1.40;;;16.80;99.90;;;;;;5014607;28;20059;-96
2022/06/02 10:41:31;;;;;;;2.55;1.42;;;17.70;99.90;;;;;;5009373;28;20053;-96
2022/06/02 10:44:05;;;;;;;3.50;1.60;;;17.50;99.90;;;;;;5008738;28;20052;-95
2022/06/02 10:46:50;;;;;;;4.25;1.83;;;17.80;99.90;;;;;;5011921;28;20049;-94
2022/06/02 10:50:08;;;;;;;2.40;1.40;;;18.40;99.90;;;;;;5012880;28;20485;-96
2022/06/02 10:52:53;;;;;;;1.95;1.40;;;17.90;99.90;;;;;;5012539;28;20188;-96
2022/06/02 10:55:44;;;;;;;3.17;1.40;;;18.20;99.90;;;;;;5009341;28;20049;-96
2022/06/02 10:58:37;;;;;;;3.10;1.40;;;17.80;99.90;;;;;;5009788;28;20409;-94
2022/06/02 11:01:35;;;;;;;3.88;1.50;;;18.50;99.90;;;;;;5027879;28;20033;-96
2022/06/02 11:04:32;;;;;;;2.63;1.30;;;18.90;99.90;;;;;;5000111;28;20044;-95
2022/06/02 11:07:29;;;;;;;4.40;1.40;;;19.20;99.90;;;;;;5013707;28;20072;-95
2022/06/02 11:10:04;;;;;;;2.13;1.40;;;18.80;99.90;;;;;;5011723;28;20052;-96
2022/06/02 11:13:08;;;;;;;1.88;1.48;;;19.20;99.90;;;;;;5018010;28;20072;-96
2022/06/02 11:15:59;;;;;;;3.10;1.58;;;20.00;99.90;;;;;;5017265;28;20144;-96
2022/06/02 11:18:52;;;;;;;1.45;1.30;;;20.40;99.90;;;;;;5017940;28;20045;-96
2022/06/02 11:21:37;;;;;;;1.63;1.42;;;19.50;99.90;;;;;;5010580;28;20050;-94
2022/06/02 11:24:28;;;;;;;4.30;1.40;;;19.60;99.90;;;;;;5008803;28;20084;-95
2022/06/02 11:27:35;;;;;;;4.45;1.70;;;19.60;99.90;;;;;;5012945;28;20128;-96
2022/06/02 11:30:25;;;;;;;3.08;1.52;;;19.60;99.90;;;;;;4982643;28;20586;-96
2022/06/02 11:32:54;;;;;;;3.03;1.65;;;19.80;99.90;;;;;;5010980;28;20055;-95
2022/06/02 11:35:42;;;;;;;5.60;1.58;;;19.10;99.90;;;;;;5009968;28;20103;-96
2022/06/02 11:38:51;;;;;;;2.05;1.60;;;18.70;99.90;;;;;;5007486;28;20489;-95
2022/06/02 11:42:01;;;;;;;3.17;1.70;;;19.10;99.90;;;;;;5007198;28;20049;-96
2022/06/02 11:44:52;;;;;;;2.05;1.30;;;19.30;99.90;;;;;;5004440;28;20046;-95
2022/06/02 11:47:26;;;;;;;2.13;1.50;;;19.30;99.90;;;;;;5014669;28;20056;-95
2022/06/02 11:49:56;;;;;;;3.05;1.70;;;19.70;99.90;;;;;;5008789;28;20045;-94
2022/06/02 11:52:51;;;;;;;2.33;1.63;;;19.80;99.90;;;;;;5011944;28;20042;-93
2022/06/02 11:55:17;;;;;;;2.97;1.30;;;20.20;99.90;;;;;;5005530;28;20139;-95
2022/06/02 11:57:59;;;;;;;4.78;1.67;;;19.00;99.90;;;;;;5011309;28;20045;-96
2022/06/02 12:00:55;;;;;;;1.55;1.35;;;18.60;99.90;;;;;;5008349;28;20080;-96
2022/06/02 12:03:39;;;;;;;2.88;1.35;;;19.00;99.90;;;;;;5005793;28;20046;-96
2022/06/02 12:06:43;;;;;;;3.22;1.60;;;18.80;99.90;;;;;;5009877;28;20042;-95
2022/06/02 12:09:30;;;;;;;2.50;1.50;;;19.70;99.90;;;;;;5009383;28;20041;-96
2022/06/02 12:12:24;;;;;;;2.63;1.63;;;19.80;99.90;;;;;;5012418;28;20041;-95
2022/06/02 12:15:22;;;;;;;2.67;1.40;;;20.00;99.90;;;;;;5006706;28;20208;-89
2022/06/02 12:18:02;;;;;;;2.83;1.77;;;19.90;99.90;;;;;;5006278;28;20276;-88
2022/06/02 12:20:45;;;;;;;3.35;1.60;;;20.20;99.90;;;;;;5005046;28;20049;-95
2022/06/02 12:23:23;;;;;;;4.22;1.60;;;20.10;99.90;;;;;;5008566;28;20046;-95
2022/06/02 12:26:00;;;;;;;3.17;1.40;;;19.80;99.90;;;;;;5011031;28;20505;-95
2022/06/02 12:28:38;;;;;;;2.90;1.60;;;19.60;99.90;;;;;;5010271;28;20045;-93
2022/06/02 12:31:42;;;;;;;2.42;1.48;;;18.80;99.90;;;;;;5011983;28;20049;-96
2022/06/02 12:34:20;;;;;;;2.55;1.45;;;19.60;99.90;;;;;;5028223;28;20064;-95
2022/06/02 12:36:52;;;;;;;3.03;1.63;;;19.10;99.90;;;;;;5014432;28;20049;-94
2022/06/02 12:39:43;;;;;;;2.80;1.30;;;18.40;99.90;;;;;;5011595;28;20481;-96
2022/06/02 12:42:53;;;;;;;4.10;1.60;;;18.30;99.90;;;;;;5015456;28;20038;-94
2022/06/02 12:45:34;;;;;;;4.20;1.80;;;18.10;99.90;;;;;;5014149;28;20083;-96
2022/06/02 12:48:46;;;;;;;2.58;1.40;;;18.20;99.90;;;;;;5018242;28;20049;-96
2022/06/02 12:51:31;;;;;;;2.67;1.45;;;19.20;99.90;;;;;;5010026;28;20480;-96
2022/06/02 12:54:09;;;;;;;3.53;1.58;;;19.20;99.90;;;;;;5010346;28;20133;-96
2022/06/02 12:56:47;;;;;;;3.22;1.45;;;19.60;99.90;;;;;;5013483;28;20052;-94
2022/06/02 12:59:41;;;;;;;1.60;1.20;;;20.00;99.90;;;;;;5011977;28;20054;-96
2022/06/02 13:02:35;;;;;;;2.28;1.60;;;19.40;99.90;;;;;;5012608;28;20049;-95
2022/06/02 13:05:39;;;;;;;2.17;1.40;;;19.60;99.90;;;;;;5011987;28;20049;-96
2022/06/02 13:08:24;;;;;;;8.00;1.60;;;19.30;99.90;;;;;;5015237;28;20054;-96
2022/06/02 13:11:27;;;;;;;4.55;1.50;;;18.50;99.90;;;;;;5010919;28;20044;-95
2022/06/02 13:14:17;;;;;;;4.03;1.52;;;18.90;99.90;;;;;;5028912;28;20045;-95
2022/06/02 13:17:20;;;;;;;2.08;1.83;;;19.40;99.90;;;;;;5010853;28;20042;-96
2022/06/02 13:20:07;;;;;;;2.30;1.40;;;19.70;99.90;;;;;;5015909;28;20401;-94
2022/06/02 13:22:51;;;;;;;1.90;1.30;;;19.90;99.90;;;;;;5017061;28;20049;-94
2022/06/02 13:25:20;;;;;;;1.95;1.17;;;19.20;99.90;;;;;;5013438;28;20104;-95
2022/06/02 13:28:09;;;;;;;2.17;1.38;;;19.30;99.90;;;;;;5014159;28;20045;-94
2022/06/02 13:30:57;;;;;;;1.55;1.40;;;19.60;99.90;;;;;;4985870;28;20042;-96
2022/06/02 13:33:38;;;;;;;2.10;1.60;;;19.80;99.90;;;;;;5015139;28;20401;-96
2022/06/02 13:36:23;;;;;;;2.70;1.40;;;19.80;99.90;;;;;;5015268;28;20124;-96
2022/06/02 13:39:07;;;;;;;1.73;1.38;;;20.00;99.90;;;;;;5015766;28;20045;-95
2022/06/02 13:42:01;;;;;;;2.03;1.23;;;19.60;99.90;;;;;;5016457;28;20041;-96
2022/06/02 13:44:56;;;;;;;2.17;1.40;;;19.20;99.90;;;;;;5021568;28;20034;-94
2022/06/02 13:47:55;;;;;;;1.70;1.40;;;19.30;99.90;;;;;;4961976;28;20106;-91
2022/06/02 13:50:42;;;;;;;3.88;1.50;;;19.50;99.90;;;;;;5010271;28;20049;-93
2022/06/02 13:53:22;;;;;;;1.80;1.30;;;19.90;99.90;;;;;;5012060;28;20037;-92
2022/06/02 13:59:24;;;;;;;2.05;1.48;;;20.00;99.90;;;;;;5030674;28;20045;-93
2022/06/02 14:02:11;;;;;;;2.10;1.30;;;20.30;99.90;;;;;;5007174;28;20045;-95
2022/06/02 14:05:07;;;;;;;2.63;1.40;;;20.60;99.90;;;;;;5018157;28;20041;-94
2022/06/02 14:07:36;;;;;;;3.65;1.40;;;21.00;99.90;;;;;;5017028;28;20475;-94
2022/06/02 14:10:21;;;;;;;2.42;1.30;;;21.00;99.90;;;;;;5016374;28;20113;-95
2022/06/02 14:12:59;;;;;;;;;;;21.00;99.90;;;;;;5013451;28;20076;-94
2022/06/02 14:15:34;;;;;;;1.50;1.40;;;20.60;99.90;;;;;;5014418;28;19929;-96
2022/06/02 14:18:11;;;;;;;2.33;1.38;;;20.70;99.90;;;;;;5014562;28;20120;-96
2022/06/02 14:21:03;;;;;;;1.73;1.30;;;20.60;99.90;;;;;;5014465;28;20059;-96
2022/06/02 14:23:44;;;;;;;3.80;1.40;;;20.90;99.90;;;;;;5015763;28;20602;-94
2022/06/02 14:26:53;;;;;;;4.00;1.55;;;21.00;99.90;;;;;;5013551;28;20072;-93
2022/06/02 14:29:44;;;;;;;2.90;1.30;;;20.80;99.90;;;;;;5012926;28;20524;-94
2022/06/02 14:32:21;;;;;;;2.80;1.33;;;20.60;99.90;;;;;;5012395;28;20064;-96
2022/06/02 14:35:07;;;;;;;4.88;1.42;;;20.60;99.90;;;;;;5015243;28;20072;-95
2022/06/02 14:37:50;;;;;;;1.80;1.23;;;21.00;99.90;;;;;;5014922;28;20045;-93
2022/06/02 14:40:29;;;;;;;3.70;1.50;;;20.70;99.90;;;;;;5012737;28;20053;-94
2022/06/02 14:43:21;;;;;;;3.63;1.60;;;20.00;99.90;;;;;;5015770;28;20049;-95
2022/06/02 14:46:25;;;;;;;1.90;1.30;;;20.50;99.90;;;;;;5012155;28;20045;-94
2022/06/02 14:49:08;;;;;;;2.38;1.20;;;20.10;99.90;;;;;;5012850;28;20145;-96
2022/06/02 14:51:50;;;;;;;2.35;1.30;;;20.50;99.90;;;;;;5014341;28;20053;-94
2022/06/02 14:54:18;;;;;;;1.55;1.20;;;20.40;99.90;;;;;;5016120;28;20068;-94
2022/06/02 14:56:59;;;;;;;2.92;1.30;;;20.50;99.90;;;;;;5017787;28;20065;-93
2022/06/02 15:00:04;;;;;;;1.65;1.33;;;20.90;99.90;;;;;;5013472;28;20440;-95
2022/06/02 15:02:49;;;;;;;2.95;1.45;;;21.00;99.90;;;;;;5017228;28;20056;-95
2022/06/02 15:05:32;;;;;;;2.78;1.33;;;20.60;99.90;;;;;;5018293;28;20049;-94
2022/06/02 15:08:33;;;;;;;3.85;1.20;;;20.20;99.90;;;;;;5012678;28;20041;-94
2022/06/02 15:11:02;;;;;;;2.15;1.25;;;20.10;99.90;;;;;;4953080;29;20035;-94
2022/06/02 15:13:56;;;;;;;3.25;1.10;;;20.20;99.90;;;;;;4998950;28;20101;-95
2022/06/02 15:16:59;;;;;;;3.00;1.33;;;20.30;99.90;;;;;;5012036;28;20073;-95
2022/06/02 15:19:41;;;;;;;2.08;1.08;;;19.80;99.90;;;;;;5010303;28;20037;-91
2022/06/02 15:22:43;;;;;;;2.83;1.77;;;19.80;99.90;;;;;;5007388;28;20049;-93
2022/06/02 15:25:09;;;;;;;2.33;1.35;;;19.60;99.90;;;;;;5006392;28;20133;-94
2022/06/02 15:27:56;;;;;;;2.88;1.23;;;19.10;99.90;;;;;;5007421;28;20088;-95
2022/06/02 15:30:33;;;;;;;1.85;1.30;;;19.10;99.90;;;;;;5005076;28;20054;-88
2022/06/02 15:33:23;;;;;;;2.78;1.42;;;18.90;99.90;;;;;;5005600;28;20667;-95
2022/06/02 15:35:58;;;;;;;2.47;1.20;;;19.00;99.90;;;;;;5009501;28;20119;-94
2022/06/02 15:39:16;;;;;;;3.85;1.20;;;18.80;99.90;;;;;;5008472;28;20105;-95
2022/06/02 15:42:12;;;;;;;1.92;1.15;;;18.80;99.90;;;;;;4976707;28;20500;-94
2022/06/02 15:44:59;;;;;;;2.72;1.45;;;18.80;99.90;;;;;;5006442;28;20053;-87
2022/06/02 15:47:53;;;;;;;1.73;1.33;;;18.80;99.90;;;;;;4998259;28;20389;-84
2022/06/02 15:50:56;;;;;;;3.40;1.20;;;18.90;99.90;;;;;;5002050;28;20067;-85
2022/06/02 15:53:53;;;;;;;1.80;1.00;;;18.90;99.90;;;;;;5012584;28;20168;-85
2022/06/02 15:56:51;;;;;;;3.35;1.15;;;18.90;99.90;;;;;;5010249;28;20050;-85
2022/06/02 15:59:48;;;;;;;1.90;1.20;;;19.10;99.90;;;;;;5010700;28;20057;-86
2022/06/02 16:02:33;;;;;;;2.22;1.17;;;18.90;99.90;;;;;;5003467;28;20045;-96
2022/06/02 16:05:21;;;;;;;1.98;1.20;;;18.60;99.90;;;;;;5020076;28;20117;-91
2022/06/02 16:08:01;;;;;;;2.85;1.10;;;18.60;99.90;;;;;;5020708;28;20045;-96
2022/06/02 16:11:14;;;;;;;3.60;1.00;;;18.50;99.90;;;;;;5015193;28;20070;-93
2022/06/02 16:14:00;;;;;;;2.97;1.40;;;18.20;99.90;;;;;;5020283;28;20041;-94
2022/06/02 16:16:29;;;;;;;2.33;1.10;;;18.30;99.90;;;;;;5022365;28;20046;-93
2022/06/02 16:19:30;;;;;;;3.03;1.30;;;18.10;99.90;;;;;;5050625;28;20038;-94
2022/06/02 16:22:05;;;;;;;2.22;1.05;;;17.80;99.90;;;;;;5036410;28;20045;-96
2022/06/02 16:24:56;;;;;;;2.67;1.20;;;17.80;99.90;;;;;;5016091;28;20044;-94
2022/06/02 16:28:00;;;;;;;2.45;1.10;;;17.30;99.90;;;;;;5013758;28;20049;-93
2022/06/02 16:30:56;;;;;;;2.10;1.10;;;17.60;99.90;;;;;;5005899;28;20105;-94
2022/06/02 16:33:31;;;;;;;2.55;1.10;;;17.60;99.90;;;;;;5022600;28;20050;-94
2022/06/02 16:36:21;;;;;;;3.15;1.10;;;17.50;99.90;;;;;;5006307;28;20133;-94
2022/06/02 16:39:11;;;;;;;5.47;1.02;;;17.60;99.90;;;;;;5005511;28;20057;-95
2022/06/02 16:41:58;;;;;;;1.58;1.10;;;17.50;99.90;;;;;;5007537;28;20060;-95
2022/06/02 16:45:24;;;;;;;2.03;1.10;;;17.30;99.90;;;;;;5008885;28;20042;-94
2022/06/02 16:48:04;;;;;;;2.47;1.20;;;17.30;99.90;;;;;;4961526;28;20058;-92
2022/06/02 16:51:04;;;;;;;1.75;1.20;;;17.20;99.90;;;;;;5003901;28;20076;-95
2022/06/02 16:53:55;;;;;;;1.42;1.00;;;16.90;99.90;;;;;;5017602;28;20094;-95
2022/06/02 16:56:33;;;;;;;1.10;1.00;;;17.10;99.90;;;;;;5014140;28;20063;-95
2022/06/02 16:59:18;;;;;;;1.90;1.17;;;17.10;99.90;;;;;;5015475;28;20053;-94
2022/06/02 17:02:03;;;;;;;1.58;1.17;;;17.10;99.90;;;;;;5011263;28;20113;-95
2022/06/02 17:05:08;;;;;;;4.50;1.48;;;17.10;99.90;;;;;;5016759;28;20136;-94
2022/06/02 17:08:02;;;;;;;2.78;1.27;;;16.90;99.90;;;;;;5037207;28;20048;-93
2022/06/02 17:10:51;;;;;;;3.28;1.08;;;17.00;99.90;;;;;;5022398;28;20056;-96
2022/06/02 17:13:55;;;;;;;1.20;0.90;;;16.70;99.90;;;;;;5006622;28;20041;-96
2022/06/02 17:17:11;;;;;;;3.20;1.08;;;16.70;99.90;;;;;;5033667;28;20056;-96
2022/06/02 17:20:16;;;;;;;1.52;1.00;;;16.60;99.90;;;;;;5012673;28;20059;-94
2022/06/02 17:23:20;;;;;;;1.45;1.05;;;16.10;99.90;;;;;;5017853;28;20461;-96
2022/06/02 17:26:28;;;;;;;3.72;1.23;;;16.50;99.90;;;;;;5016129;28;20045;-96
2022/06/02 17:29:15;;;;;;;3.67;1.20;;;16.60;99.90;;;;;;4991389;28;20049;-95
2022/06/02 17:32:22;;;;;;;3.60;1.20;;;16.60;99.90;;;;;;5016470;28;20080;-96
2022/06/02 17:35:27;;;;;;;2.70;1.40;;;16.60;99.90;;;;;;5019084;28;20046;-96
2022/06/02 17:38:35;;;;;;;1.20;0.95;;;16.30;99.90;;;;;;5020205;28;20045;-95
2022/06/02 17:41:25;;;;;;;1.63;1.10;;;16.10;99.90;;;;;;4957097;29;20153;-96
2022/06/02 17:44:09;;;;;;;4.43;1.10;;;16.20;99.90;;;;;;4937124;29;20046;-95
2022/06/02 17:47:00;;;;;;;1.27;0.90;;;16.20;99.90;;;;;;4997870;28;20096;-93
2022/06/02 17:49:48;;;;;;;1.52;0.90;;;16.20;99.90;;;;;;5016327;28;20041;-95
2022/06/02 17:52:53;;;;;;;4.10;1.60;;;16.20;99.90;;;;;;5016853;28;20565;-96
2022/06/02 17:56:01;;;;;;;2.10;1.25;;;16.10;99.90;;;;;;5019320;28;20044;-95
2022/06/02 17:58:34;;;;;;;3.05;1.27;;;16.00;99.90;;;;;;5018255;28;20042;-95
2022/06/02 18:01:09;;;;;;;4.07;1.30;;;15.90;99.90;;;;;;5014381;28;20054;-95
2022/06/02 18:04:05;;;;;;;1.88;1.10;;;16.00;99.90;;;;;;5016122;28;20075;-95
2022/06/02 18:07:20;;;;;;;3.67;1.25;;;15.90;99.90;;;;;;5016106;28;20045;-95
2022/06/02 18:09:57;;;;;;;2.80;1.02;;;15.80;99.90;;;;;;5018023;28;20068;-96
2022/06/02 18:12:55;;;;;;;3.03;1.20;;;15.70;99.90;;;;;;5035730;28;20045;-95
2022/06/02 18:15:27;;;;;;;2.75;1.48;;;15.70;99.90;;;;;;5016766;28;20045;-95
2022/06/02 18:18:22;;;;;;;2.67;1.15;;;15.60;99.90;;;;;;5034166;28;20105;-96
2022/06/02 18:21:13;;;;;;;1.53;1.03;;;15.50;99.90;;;;;;5021318;28;20049;-96
2022/06/02 18:23:53;;;;;;;1.60;0.98;;;15.50;99.90;;;;;;5017603;28;20272;-96
2022/06/02 18:26:22;;;;;;;1.60;1.30;;;15.40;99.90;;;;;;5020385;28;20079;-96
2022/06/02 18:29:14;;;;;;;1.77;0.95;;;15.30;99.90;;;;;;5019735;28;20053;-96
2022/06/02 18:32:20;;;;;;;3.88;1.30;;;15.20;99.90;;;;;;5017734;28;20109;-96
2022/06/02 18:35:17;;;;;;;4.25;1.75;;;15.10;99.90;;;;;;5052178;28;20053;-96
2022/06/02 18:38:02;;;;;;;1.83;1.00;;;15.10;99.90;;;;;;5016397;28;20053;-96
2022/06/02 18:41:08;;;;;;;3.17;1.15;;;14.90;99.90;;;;;;5018296;28;20084;-95
2022/06/02 18:44:04;;;;;;;1.30;1.20;;;14.80;99.90;;;;;;5018707;28;20145;-96
2022/06/02 18:46:55;;;;;;;3.38;1.30;;;14.80;99.90;;;;;;5018960;28;20057;-96
2022/06/02 18:49:43;;;;;;;3.00;1.00;;;14.70;99.90;;;;;;5050500;28;20049;-96
2022/06/02 18:53:01;;;;;;;1.50;1.10;;;14.60;99.90;;;;;;5035847;28;20591;-96
2022/06/02 18:55:51;;;;;;;1.50;1.30;;;14.60;99.90;;;;;;4987060;28;20041;-96
2022/06/02 18:58:46;;;;;;;2.25;1.20;;;14.50;99.90;;;;;;5019134;28;20052;-95
2022/06/02 19:01:37;;;;;;;2.17;1.20;;;14.40;99.90;;;;;;5010448;28;20049;-95
2022/06/02 19:04:09;;;;;;;2.22;1.10;;;14.30;99.90;;;;;;5016559;28;20067;-96
2022/06/02 19:16:30;;;;;;;;;;;14.00;99.90;;;;;;5035188;28;20076;-96
2022/06/02 19:19:17;;;;;;;2.97;1.60;;;13.80;99.90;;;;;;5038683;28;19921;-96
2022/06/02 19:21:44;;;;;;;2.60;1.42;;;13.70;99.90;;;;;;5023071;28;20029;-96
2022/06/02 19:24:28;;;;;;;2.80;1.40;;;13.70;99.90;;;;;;5020099;28;20045;-96
2022/06/02 19:27:26;;;;;;;4.78;1.80;;;13.60;99.90;;;;;;5020324;28;20091;-95
2022/06/02 19:30:27;;;;;;;2.47;1.67;;;12.80;99.90;;;;;;5018433;28;20037;-96
2022/06/02 19:33:08;;;;;;;1.83;1.38;;;13.50;99.90;;;;;;5018450;28;20029;-96
2022/06/02 19:36:02;;;;;;;2.63;1.48;;;13.40;99.90;;;;;;5016803;28;20114;-96
2022/06/02 19:38:59;;;;;;;1.98;1.35;;;13.30;99.90;;;;;;5038779;28;20053;-96
2022/06/02 19:41:49;;;;;;;2.67;1.45;;;13.20;99.90;;;;;;5023744;28;20029;-95
2022/06/02 19:49:54;;;;;;;2.70;1.52;;;12.90;99.90;;;;;;3272112;23;20083;-96
2022/06/02 19:52:44;;;;;;;2.63;1.40;;;12.90;99.90;;;;;;5021868;28;20519;-87
2022/06/02 19:55:46;;;;;;;1.90;1.58;;;12.80;99.90;;;;;;5045957;28;20068;-96
2022/06/02 19:58:50;;;;;;;4.20;1.55;;;12.60;99.90;;;;;;4992149;28;20046;-86
2022/06/02 20:01:16;;;;;;;3.28;1.75;;;12.60;99.90;;;;;;5018854;28;20045;-86
2022/06/02 20:03:44;;;;;;;1.88;1.50;;;12.50;99.90;;;;;;5018997;28;20048;-86
2022/06/02 20:06:23;;;;;;;3.78;1.77;;;12.50;99.90;;;;;;5018759;28;20037;-85
2022/06/02 20:08:55;;;;;;;1.80;1.70;;;12.40;99.90;;;;;;5019344;28;20041;-87
2022/06/02 20:11:33;;;;;;;3.60;1.90;;;12.30;99.90;;;;;;5018120;28;20080;-85
2022/06/02 20:14:02;;;;;;;4.18;2.15;;;12.40;99.90;;;;;;5016933;28;20076;-84
2022/06/02 20:16:46;;;;;;;2.67;2.17;;;12.30;99.90;;;;;;5017030;28;20041;-87
2022/06/02 20:19:59;;;;;;;3.10;2.20;;;12.40;99.90;;;;;;5034574;28;20053;-96
2022/06/02 20:22:53;;;;;;;2.92;2.22;;;12.30;99.90;;;;;;5042529;28;20047;-96
2022/06/02 20:25:41;;;;;;;5.13;2.88;;;12.30;99.90;;;;;;5037412;28;20052;-96
2022/06/02 20:28:23;;;;;;;3.70;2.70;;;12.30;99.90;;;;;;5037826;28;20045;-96
2022/06/02 20:31:33;;;;;;;4.88;2.53;;;12.30;99.90;;;;;;5044368;28;20037;-96
2022/06/02 20:34:19;;;;;;;4.50;2.85;;;12.30;99.90;;;;;;5043085;28;20064;-96
2022/06/02 20:37:13;;;;;;;6.93;3.00;;;12.10;99.90;;;;;;5053803;28;20033;-95
2022/06/02 20:40:04;;;;;;;5.65;3.13;;;12.10;99.90;;;;;;5041806;28;20109;-96
2022/06/02 20:42:53;;;;;;;4.10;3.03;;;12.00;99.90;;;;;;5043716;28;20116;-96
2022/06/02 20:45:50;;;;;;;3.88;3.22;;;12.00;99.90;;;;;;5038354;28;20101;-96
2022/06/02 20:48:55;;;;;;;6.30;3.88;;;12.10;99.90;;;;;;5057738;28;20045;-96
2022/06/02 20:51:39;;;;;;;3.85;2.83;;;12.00;99.90;;;;;;5021105;28;20488;-95
2022/06/02 20:55:04;;;;;;;5.80;3.35;;;12.10;99.90;;;;;;5019447;28;20052;-96
2022/06/02 20:57:49;;;;;;;4.28;2.90;;;12.10;99.90;;;;;;5018119;28;20041;-93
2022/06/02 21:00:57;;;;;;;3.42;3.13;;;12.10;99.90;;;;;;5014090;28;20205;-95
2022/06/02 21:03:51;;;;;;;5.45;3.60;;;12.00;99.90;;;;;;5048880;28;20060;-96
2022/06/02 21:06:39;;;;;;;3.70;3.13;;;11.90;99.90;;;;;;5017661;28;20065;-96
2022/06/02 21:09:18;;;;;;;6.40;3.88;;;11.90;99.90;;;;;;5051293;28;20060;-96
2022/06/02 21:11:56;;;;;;;10.27;3.67;;;11.90;99.90;;;;;;5050833;28;20118;-96
2022/06/02 21:14:25;;;;;;;6.47;3.47;;;11.70;99.90;;;;;;5019100;28;20061;-95
2022/06/02 21:17:23;;;;;;;4.65;3.13;;;11.70;99.90;;;;;;5018286;28;20082;-96
2022/06/02 21:19:57;;;;;;;7.57;4.00;;;11.60;99.90;;;;;;4992738;28;20111;-95
2022/06/02 21:22:30;;;;;;;6.68;4.53;;;11.50;99.90;;;;;;5016430;28;20046;-95
2022/06/02 21:25:15;;;;;;;5.20;3.30;;;11.50;99.90;;;;;;5047774;28;20041;-95
2022/06/02 21:27:44;;;;;;;4.93;3.35;;;11.40;99.90;;;;;;5048363;28;20076;-96
2022/06/02 21:30:32;;;;;;;7.15;3.80;;;11.40;99.90;;;;;;4998979;28;20105;-94
2022/06/02 21:33:15;;;;;;;5.80;4.05;;;11.50;99.90;;;;;;5018534;28;20064;-94